sensor_id;sensor_type;location;lat;lon;timestamp;pressure;altitude;pressure_sealevel;temperature;humidity
41234;BME280;26968;42.686;23.352;2022-08-14T00:01:40;94707.44;;;19.81;75.39
41234;BME280;26968;42.686;23.352;2022-08-14T00:04:05;94676.69;;;19.66;75.30
41234;BME280;26968;42.686;23.352;2022-08-14T00:06:31;94568.13;;;18.91;75.09
41234;BME280;26968;42.686;23.352;2022-08-14T00:08:56;94657.09;;;19.53;75.54
41234;BME280;26968;42.686;23.352;2022-08-14T00:11:22;94673.09;;;19.62;75.21
41234;BME280;26968;42.686;23.352;2022-08-14T00:13:47;94602.97;;;19.15;75.87
41234;BME280;26968;42.686;23.352;2022-08-14T00:16:13;94687.63;;;19.73;76.07
41234;BME280;26968;42.686;23.352;2022-08-14T00:18:39;94695.44;;;19.78;75.69
41234;BME280;26968;42.686;23.352;2022-08-14T00:21:06;94656.59;;;19.36;75.42
41234;BME280;26968;42.686;23.352;2022-08-14T00:23:32;94653.84;;;19.08;76.21
41234;BME280;26968;42.686;23.352;2022-08-14T00:25:57;94620.06;;;19.07;76.19
41234;BME280;26968;42.686;23.352;2022-08-14T00:28:23;94691.38;;;19.56;76.96
41234;BME280;26968;42.686;23.352;2022-08-14T00:30:56;94699.22;;;19.61;76.95
41234;BME280;26968;42.686;23.352;2022-08-14T00:33:26;94704.03;;;19.68;76.47
41234;BME280;26968;42.686;23.352;2022-08-14T00:35:52;94657.72;;;19.35;74.99
41234;BME280;26968;42.686;23.352;2022-08-14T00:38:18;94639.69;;;19.23;75.60
41234;BME280;26968;42.686;23.352;2022-08-14T00:40:44;94686.25;;;19.51;75.94
41234;BME280;26968;42.686;23.352;2022-08-14T00:43:10;94628.94;;;19.23;76.36
41234;BME280;26968;42.686;23.352;2022-08-14T00:45:36;94604.94;;;19.02;75.86
41234;BME280;26968;42.686;23.352;2022-08-14T00:48:02;94653.59;;;19.25;75.27
41234;BME280;26968;42.686;23.352;2022-08-14T00:50:29;94667.59;;;19.18;75.42
41234;BME280;26968;42.686;23.352;2022-08-14T00:52:56;94629.25;;;18.94;76.46
41234;BME280;26968;42.686;23.352;2022-08-14T00:55:24;94608.84;;;19.05;76.67
41234;BME280;26968;42.686;23.352;2022-08-14T00:57:52;94677.59;;;19.46;75.95
41234;BME280;26968;42.686;23.352;2022-08-14T01:00:38;94684.22;;;19.60;76.23
41234;BME280;26968;42.686;23.352;2022-08-14T01:03:06;94608.47;;;19.18;75.88
41234;BME280;26968;42.686;23.352;2022-08-14T01:05:32;94553.34;;;18.84;75.24
41234;BME280;26968;42.686;23.352;2022-08-14T01:07:58;94670.84;;;19.64;75.83
41234;BME280;26968;42.686;23.352;2022-08-14T01:10:26;94598.31;;;19.00;76.06
41234;BME280;26968;42.686;23.352;2022-08-14T01:13:13;94648.06;;;19.34;75.70
41234;BME280;26968;42.686;23.352;2022-08-14T01:15:49;94502.75;;;18.59;75.58
41234;BME280;26968;42.686;23.352;2022-08-14T01:18:14;94654.19;;;19.58;76.01
41234;BME280;26968;42.686;23.352;2022-08-14T01:20:59;94623.97;;;19.49;75.87
41234;BME280;26968;42.686;23.352;2022-08-14T01:23:29;94402.97;;;18.04;76.44
41234;BME280;26968;42.686;23.352;2022-08-14T01:25:56;94589.00;;;19.09;76.18
41234;BME280;26968;42.686;23.352;2022-08-14T01:28:22;94660.16;;;19.52;76.85
41234;BME280;26968;42.686;23.352;2022-08-14T01:30:51;94639.09;;;19.42;76.99
41234;BME280;26968;42.686;23.352;2022-08-14T01:33:21;94578.38;;;19.13;76.58
41234;BME280;26968;42.686;23.352;2022-08-14T01:35:47;94658.66;;;19.54;75.92
41234;BME280;26968;42.686;23.352;2022-08-14T01:38:13;94582.84;;;19.09;76.83
41234;BME280;26968;42.686;23.352;2022-08-14T01:40:41;94598.44;;;19.31;76.80
41234;BME280;26968;42.686;23.352;2022-08-14T01:43:11;94564.63;;;19.02;75.83
41234;BME280;26968;42.686;23.352;2022-08-14T01:45:39;94601.06;;;19.27;75.78
41234;BME280;26968;42.686;23.352;2022-08-14T01:48:05;94639.69;;;19.63;74.91
41234;BME280;26968;42.686;23.352;2022-08-14T01:50:31;94622.16;;;19.41;74.68
41234;BME280;26968;42.686;23.352;2022-08-14T01:52:57;94632.00;;;19.21;74.84
41234;BME280;26968;42.686;23.352;2022-08-14T01:55:24;94663.00;;;19.19;75.85
41234;BME280;26968;42.686;23.352;2022-08-14T01:57:54;94613.44;;;19.04;76.17
41234;BME280;26968;42.686;23.352;2022-08-14T02:00:20;94494.38;;;18.36;75.78
41234;BME280;26968;42.686;23.352;2022-08-14T02:02:45;94539.91;;;18.57;75.43
41234;BME280;26968;42.686;23.352;2022-08-14T02:05:12;94551.84;;;18.71;75.99
41234;BME280;26968;42.686;23.352;2022-08-14T02:07:39;94571.41;;;18.72;76.09
41234;BME280;26968;42.686;23.352;2022-08-14T02:10:06;94658.81;;;19.34;75.64
41234;BME280;26968;42.686;23.352;2022-08-14T02:12:31;94563.69;;;18.82;75.74
41234;BME280;26968;42.686;23.352;2022-08-14T02:14:57;94591.25;;;19.07;75.77
41234;BME280;26968;42.686;23.352;2022-08-14T02:17:25;94627.94;;;19.27;76.01
41234;BME280;26968;42.686;23.352;2022-08-14T02:19:51;94643.22;;;19.39;75.55
41234;BME280;26968;42.686;23.352;2022-08-14T02:22:17;94646.03;;;19.43;75.33
41234;BME280;26968;42.686;23.352;2022-08-14T02:24:43;94645.25;;;19.30;75.35
41234;BME280;26968;42.686;23.352;2022-08-14T02:27:09;94616.25;;;18.96;75.55
41234;BME280;26968;42.686;23.352;2022-08-14T02:29:35;94539.31;;;18.63;75.79
41234;BME280;26968;42.686;23.352;2022-08-14T02:32:01;94538.09;;;18.48;76.04
41234;BME280;26968;42.686;23.352;2022-08-14T02:34:32;94640.72;;;19.18;76.06
41234;BME280;26968;42.686;23.352;2022-08-14T02:37:00;94552.53;;;18.56;75.71
41234;BME280;26968;42.686;23.352;2022-08-14T02:39:28;94578.59;;;18.68;75.73
41234;BME280;26968;42.686;23.352;2022-08-14T02:41:55;94548.63;;;18.54;75.24
41234;BME280;26968;42.686;23.352;2022-08-14T02:44:21;94528.50;;;18.35;75.03
41234;BME280;26968;42.686;23.352;2022-08-14T02:46:49;94618.28;;;18.99;75.20
41234;BME280;26968;42.686;23.352;2022-08-14T02:49:15;94592.25;;;18.75;75.53
41234;BME280;26968;42.686;23.352;2022-08-14T02:51:41;94563.69;;;18.70;75.24
41234;BME280;26968;42.686;23.352;2022-08-14T02:54:08;94570.75;;;18.75;75.25
41234;BME280;26968;42.686;23.352;2022-08-14T02:56:35;94603.34;;;19.01;74.60
41234;BME280;26968;42.686;23.352;2022-08-14T02:59:03;94635.56;;;19.25;74.68
41234;BME280;26968;42.686;23.352;2022-08-14T03:01:29;94620.50;;;18.97;74.93
41234;BME280;26968;42.686;23.352;2022-08-14T03:03:55;94639.31;;;18.97;75.80
41234;BME280;26968;42.686;23.352;2022-08-14T03:06:21;94568.66;;;18.56;75.45
41234;BME280;26968;42.686;23.352;2022-08-14T03:08:51;94582.16;;;18.47;75.59
41234;BME280;26968;42.686;23.352;2022-08-14T03:11:16;94624.47;;;18.75;76.11
41234;BME280;26968;42.686;23.352;2022-08-14T03:13:47;94584.63;;;18.52;75.63
41234;BME280;26968;42.686;23.352;2022-08-14T03:16:20;94636.34;;;18.74;76.50
41234;BME280;26968;42.686;23.352;2022-08-14T03:18:47;94605.34;;;18.64;76.41
41234;BME280;26968;42.686;23.352;2022-08-14T03:21:17;94615.63;;;18.74;76.33
41234;BME280;26968;42.686;23.352;2022-08-14T03:23:47;94517.31;;;18.21;76.33
41234;BME280;26968;42.686;23.352;2022-08-14T03:26:15;94634.84;;;18.88;76.58
41234;BME280;26968;42.686;23.352;2022-08-14T03:28:43;94634.41;;;18.86;76.01
41234;BME280;26968;42.686;23.352;2022-08-14T03:31:10;94642.81;;;18.73;76.40
41234;BME280;26968;42.686;23.352;2022-08-14T03:33:36;94584.41;;;18.33;76.48
41234;BME280;26968;42.686;23.352;2022-08-14T03:36:05;94648.75;;;18.66;76.47
41234;BME280;26968;42.686;23.352;2022-08-14T03:38:36;94562.50;;;18.07;76.67
41234;BME280;26968;42.686;23.352;2022-08-14T03:41:14;94587.56;;;18.23;76.60
41234;BME280;26968;42.686;23.352;2022-08-14T03:43:49;94583.19;;;18.31;76.67
41234;BME280;26968;42.686;23.352;2022-08-14T03:46:16;94606.88;;;18.41;76.54
41234;BME280;26968;42.686;23.352;2022-08-14T03:48:43;94589.09;;;18.48;76.24
41234;BME280;26968;42.686;23.352;2022-08-14T03:51:11;94659.47;;;19.03;75.33
41234;BME280;26968;42.686;23.352;2022-08-14T03:53:40;94546.06;;;18.08;76.10
41234;BME280;26968;42.686;23.352;2022-08-14T03:56:07;94609.38;;;18.46;76.11
41234;BME280;26968;42.686;23.352;2022-08-14T03:58:37;94595.38;;;18.28;76.23
41234;BME280;26968;42.686;23.352;2022-08-14T04:01:03;94663.88;;;18.83;76.66
41234;BME280;26968;42.686;23.352;2022-08-14T04:03:29;94622.56;;;18.75;76.09
41234;BME280;26968;42.686;23.352;2022-08-14T04:05:55;94568.94;;;18.55;75.63
41234;BME280;26968;42.686;23.352;2022-08-14T04:08:21;94590.34;;;18.75;75.34
41234;BME280;26968;42.686;23.352;2022-08-14T04:10:46;94405.44;;;17.49;74.79
41234;BME280;26968;42.686;23.352;2022-08-14T04:13:12;94669.72;;;19.25;74.47
41234;BME280;26968;42.686;23.352;2022-08-14T04:15:43;94644.88;;;19.16;74.55
41234;BME280;26968;42.686;23.352;2022-08-14T04:18:10;94634.19;;;18.92;75.16
41234;BME280;26968;42.686;23.352;2022-08-14T04:20:37;94664.31;;;19.37;74.44
41234;BME280;26968;42.686;23.352;2022-08-14T04:23:03;94528.91;;;18.62;74.20
41234;BME280;26968;42.686;23.352;2022-08-14T04:25:31;94617.66;;;19.17;74.01
41234;BME280;26968;42.686;23.352;2022-08-14T04:27:59;94641.66;;;19.38;74.10
41234;BME280;26968;42.686;23.352;2022-08-14T04:30:25;94651.84;;;19.45;74.14
41234;BME280;26968;42.686;23.352;2022-08-14T04:32:54;94544.63;;;18.87;74.27
41234;BME280;26968;42.686;23.352;2022-08-14T04:35:20;94588.56;;;19.07;73.71
41234;BME280;26968;42.686;23.352;2022-08-14T04:37:45;94637.31;;;19.34;73.88
41234;BME280;26968;42.686;23.352;2022-08-14T04:40:29;94642.34;;;19.47;74.55
41234;BME280;26968;42.686;23.352;2022-08-14T04:43:13;94613.91;;;19.34;74.38
41234;BME280;26968;42.686;23.352;2022-08-14T04:45:57;94588.88;;;19.18;74.68
41234;BME280;26968;42.686;23.352;2022-08-14T04:48:26;94624.59;;;19.46;74.43
41234;BME280;26968;42.686;23.352;2022-08-14T04:50:52;94629.97;;;19.46;74.34
41234;BME280;26968;42.686;23.352;2022-08-14T04:53:22;94594.44;;;19.25;74.34
41234;BME280;26968;42.686;23.352;2022-08-14T04:55:49;94661.31;;;19.67;74.58
41234;BME280;26968;42.686;23.352;2022-08-14T04:58:16;94558.31;;;18.70;75.13
41234;BME280;26968;42.686;23.352;2022-08-14T05:00:47;94585.59;;;18.84;75.24
41234;BME280;26968;42.686;23.352;2022-08-14T05:03:29;94628.03;;;18.91;75.42
41234;BME280;26968;42.686;23.352;2022-08-14T05:05:59;94659.13;;;19.04;76.26
41234;BME280;26968;42.686;23.352;2022-08-14T05:08:25;94518.88;;;18.10;76.77
41234;BME280;26968;42.686;23.352;2022-08-14T05:10:55;94575.00;;;18.76;76.24
41234;BME280;26968;42.686;23.352;2022-08-14T05:13:24;94585.50;;;18.81;75.57
41234;BME280;26968;42.686;23.352;2022-08-14T05:15:51;94521.31;;;18.51;75.16
41234;BME280;26968;42.686;23.352;2022-08-14T05:18:20;94439.09;;;18.07;74.95
41234;BME280;26968;42.686;23.352;2022-08-14T05:20:52;94645.69;;;19.44;75.12
41234;BME280;26968;42.686;23.352;2022-08-14T05:23:23;94626.09;;;19.44;74.53
41234;BME280;26968;42.686;23.352;2022-08-14T05:25:51;94618.94;;;19.36;74.72
41234;BME280;26968;42.686;23.352;2022-08-14T05:28:25;94599.09;;;19.12;74.07
41234;BME280;26968;42.686;23.352;2022-08-14T05:30:56;94669.88;;;19.56;74.79
41234;BME280;26968;42.686;23.352;2022-08-14T05:33:24;94497.91;;;18.64;74.56
41234;BME280;26968;42.686;23.352;2022-08-14T05:35:53;94664.66;;;19.76;74.76
41234;BME280;26968;42.686;23.352;2022-08-14T05:38:27;94660.72;;;19.73;74.01
41234;BME280;26968;42.686;23.352;2022-08-14T05:40:54;94544.53;;;18.84;73.56
41234;BME280;26968;42.686;23.352;2022-08-14T05:43:21;94660.72;;;19.73;73.29
41234;BME280;26968;42.686;23.352;2022-08-14T05:45:47;94651.38;;;19.55;72.73
41234;BME280;26968;42.686;23.352;2022-08-14T05:48:14;94619.81;;;19.52;72.83
41234;BME280;26968;42.686;23.352;2022-08-14T05:50:42;94617.56;;;19.42;72.16
41234;BME280;26968;42.686;23.352;2022-08-14T05:53:08;94572.88;;;19.09;72.64
41234;BME280;26968;42.686;23.352;2022-08-14T05:55:34;94674.91;;;19.86;72.09
41234;BME280;26968;42.686;23.352;2022-08-14T05:58:04;94664.38;;;19.81;71.98
41234;BME280;26968;42.686;23.352;2022-08-14T06:00:35;94616.44;;;19.43;72.44
41234;BME280;26968;42.686;23.352;2022-08-14T06:03:03;94554.78;;;18.94;72.80
41234;BME280;26968;42.686;23.352;2022-08-14T06:05:29;94585.13;;;18.95;73.05
41234;BME280;26968;42.686;23.352;2022-08-14T06:07:56;94557.19;;;18.83;72.66
41234;BME280;26968;42.686;23.352;2022-08-14T06:10:22;94639.22;;;19.33;73.13
41234;BME280;26968;42.686;23.352;2022-08-14T06:12:47;94630.13;;;19.38;73.36
41234;BME280;26968;42.686;23.352;2022-08-14T06:15:13;94628.28;;;19.26;73.26
41234;BME280;26968;42.686;23.352;2022-08-14T06:17:47;94596.88;;;19.02;73.52
41234;BME280;26968;42.686;23.352;2022-08-14T06:20:13;94664.16;;;19.58;73.11
41234;BME280;26968;42.686;23.352;2022-08-14T06:22:40;94644.25;;;19.35;73.42
41234;BME280;26968;42.686;23.352;2022-08-14T06:25:11;94677.13;;;19.84;72.78
41234;BME280;26968;42.686;23.352;2022-08-14T06:27:38;94519.25;;;18.73;72.76
41234;BME280;26968;42.686;23.352;2022-08-14T06:30:09;94622.25;;;19.17;73.45
41234;BME280;26968;42.686;23.352;2022-08-14T06:32:35;94643.13;;;19.48;73.64
41234;BME280;26968;42.686;23.352;2022-08-14T06:35:05;94685.00;;;19.89;73.53
41234;BME280;26968;42.686;23.352;2022-08-14T06:37:48;94619.91;;;19.43;72.95
41234;BME280;26968;42.686;23.352;2022-08-14T06:40:20;94691.97;;;20.06;72.97
41234;BME280;26968;42.686;23.352;2022-08-14T06:42:46;94593.50;;;19.33;72.90
41234;BME280;26968;42.686;23.352;2022-08-14T06:45:12;94673.72;;;19.71;73.09
41234;BME280;26968;42.686;23.352;2022-08-14T06:47:39;94597.31;;;19.32;73.09
41234;BME280;26968;42.686;23.352;2022-08-14T06:50:07;94668.38;;;19.87;73.29
41234;BME280;26968;42.686;23.352;2022-08-14T06:52:33;94685.69;;;20.01;73.34
41234;BME280;26968;42.686;23.352;2022-08-14T06:54:58;94605.13;;;19.49;73.20
41234;BME280;26968;42.686;23.352;2022-08-14T06:57:24;94664.75;;;19.95;73.00
41234;BME280;26968;42.686;23.352;2022-08-14T06:59:50;94642.38;;;19.91;73.15
41234;BME280;26968;42.686;23.352;2022-08-14T07:02:16;94578.09;;;19.46;72.94
41234;BME280;26968;42.686;23.352;2022-08-14T07:05:00;94656.09;;;20.01;72.73
41234;BME280;26968;42.686;23.352;2022-08-14T07:07:44;94622.56;;;19.83;72.59
41234;BME280;26968;42.686;23.352;2022-08-14T07:10:11;94590.41;;;19.59;71.87
41234;BME280;26968;42.686;23.352;2022-08-14T07:12:37;94615.34;;;19.72;71.95
41234;BME280;26968;42.686;23.352;2022-08-14T07:15:04;94673.69;;;19.99;72.31
41234;BME280;26968;42.686;23.352;2022-08-14T07:17:29;94590.59;;;19.66;72.00
41234;BME280;26968;42.686;23.352;2022-08-14T07:19:55;94670.47;;;20.21;72.21
41234;BME280;26968;42.686;23.352;2022-08-14T07:22:21;94671.84;;;20.31;71.76
41234;BME280;26968;42.686;23.352;2022-08-14T07:24:46;94657.50;;;20.27;71.80
41234;BME280;26968;42.686;23.352;2022-08-14T07:27:12;94677.56;;;20.29;72.09
41234;BME280;26968;42.686;23.352;2022-08-14T07:29:37;94619.97;;;20.02;70.97
41234;BME280;26968;42.686;23.352;2022-08-14T07:32:03;94617.09;;;19.95;70.34
41234;BME280;26968;42.686;23.352;2022-08-14T07:34:29;94553.44;;;19.56;69.43
41234;BME280;26968;42.686;23.352;2022-08-14T07:36:55;94585.66;;;19.84;69.00
41234;BME280;26968;42.686;23.352;2022-08-14T07:39:20;94692.97;;;20.29;69.38
41234;BME280;26968;42.686;23.352;2022-08-14T07:41:46;94668.09;;;20.04;69.44
41234;BME280;26968;42.686;23.352;2022-08-14T07:44:11;94617.38;;;19.90;69.62
41234;BME280;26968;42.686;23.352;2022-08-14T07:46:40;94657.00;;;20.21;69.13
41234;BME280;26968;42.686;23.352;2022-08-14T07:49:06;94529.97;;;19.41;67.83
41234;BME280;26968;42.686;23.352;2022-08-14T07:51:33;94676.31;;;20.55;67.63
41234;BME280;26968;42.686;23.352;2022-08-14T07:53:59;94707.50;;;20.71;67.33
41234;BME280;26968;42.686;23.352;2022-08-14T07:56:25;94689.75;;;20.70;68.04
41234;BME280;26968;42.686;23.352;2022-08-14T07:58:52;94612.88;;;20.26;67.45
41234;BME280;26968;42.686;23.352;2022-08-14T08:01:18;94669.19;;;20.47;68.04
41234;BME280;26968;42.686;23.352;2022-08-14T08:03:48;94650.53;;;20.10;68.09
41234;BME280;26968;42.686;23.352;2022-08-14T08:06:15;94682.88;;;20.26;67.11
41234;BME280;26968;42.686;23.352;2022-08-14T08:08:42;94702.16;;;20.28;67.98
41234;BME280;26968;42.686;23.352;2022-08-14T08:11:08;94647.94;;;19.98;66.16
41234;BME280;26968;42.686;23.352;2022-08-14T08:13:35;94675.97;;;19.97;65.59
41234;BME280;26968;42.686;23.352;2022-08-14T08:16:06;94680.97;;;20.26;65.11
41234;BME280;26968;42.686;23.352;2022-08-14T08:18:32;94665.16;;;20.25;64.35
41234;BME280;26968;42.686;23.352;2022-08-14T08:20:58;94591.38;;;19.67;64.92
41234;BME280;26968;42.686;23.352;2022-08-14T08:23:23;94663.31;;;20.13;65.59
41234;BME280;26968;42.686;23.352;2022-08-14T08:25:51;94663.22;;;20.10;67.31
41234;BME280;26968;42.686;23.352;2022-08-14T08:28:19;94565.69;;;19.41;68.34
41234;BME280;26968;42.686;23.352;2022-08-14T08:30:50;94683.81;;;20.18;69.01
41234;BME280;26968;42.686;23.352;2022-08-14T08:33:20;94684.94;;;20.17;68.82
41234;BME280;26968;42.686;23.352;2022-08-14T08:35:48;94689.56;;;20.32;71.32
41234;BME280;26968;42.686;23.352;2022-08-14T08:38:16;94647.66;;;19.87;71.99
41234;BME280;26968;42.686;23.352;2022-08-14T08:40:50;94638.28;;;19.81;71.47
41234;BME280;26968;42.686;23.352;2022-08-14T08:43:24;94677.25;;;19.87;70.09
41234;BME280;26968;42.686;23.352;2022-08-14T08:46:08;94600.53;;;19.38;70.78
41234;BME280;26968;42.686;23.352;2022-08-14T08:48:54;94676.31;;;19.95;71.67
41234;BME280;26968;42.686;23.352;2022-08-14T08:51:27;94629.97;;;19.46;72.67
41234;BME280;26968;42.686;23.352;2022-08-14T08:54:13;94680.75;;;20.03;72.13
41234;BME280;26968;42.686;23.352;2022-08-14T08:59:21;94629.94;;;19.86;72.21
41234;BME280;26968;42.686;23.352;2022-08-14T09:01:51;94559.88;;;19.39;70.68
41234;BME280;26968;42.686;23.352;2022-08-14T09:04:18;94623.16;;;19.77;70.44
41234;BME280;26968;42.686;23.352;2022-08-14T09:06:45;94555.00;;;19.57;70.70
41234;BME280;26968;42.686;23.352;2022-08-14T09:09:25;94665.97;;;20.57;69.12
41234;BME280;26968;42.686;23.352;2022-08-14T09:11:51;94664.91;;;20.46;67.57
41234;BME280;26968;42.686;23.352;2022-08-14T09:14:21;94657.25;;;20.32;68.37
41234;BME280;26968;42.686;23.352;2022-08-14T09:16:48;94624.84;;;20.13;68.45
41234;BME280;26968;42.686;23.352;2022-08-14T09:19:14;94578.22;;;19.93;68.04
41234;BME280;26968;42.686;23.352;2022-08-14T09:21:40;94552.78;;;19.90;66.87
41234;BME280;26968;42.686;23.352;2022-08-14T09:24:07;94663.34;;;20.45;67.19
41234;BME280;26968;42.686;23.352;2022-08-14T09:26:33;94578.53;;;19.91;66.64
41234;BME280;26968;42.686;23.352;2022-08-14T09:28:59;94605.63;;;20.14;66.86
41234;BME280;26968;42.686;23.352;2022-08-14T09:31:26;94561.63;;;20.07;65.55
41234;BME280;26968;42.686;23.352;2022-08-14T09:34:11;94562.66;;;20.18;65.50
41234;BME280;26968;42.686;23.352;2022-08-14T09:47:18;94639.00;;;21.23;63.81
41234;BME280;26968;42.686;23.352;2022-08-14T09:49:45;94663.78;;;21.48;62.85
41234;BME280;26968;42.686;23.352;2022-08-14T09:52:13;94605.44;;;21.21;61.62
41234;BME280;26968;42.686;23.352;2022-08-14T09:54:44;94564.22;;;20.85;62.12
41234;BME280;26968;42.686;23.352;2022-08-14T09:57:22;94525.16;;;20.95;61.64
41234;BME280;26968;42.686;23.352;2022-08-14T09:59:48;94622.38;;;21.79;60.51
41234;BME280;26968;42.686;23.352;2022-08-14T10:02:32;94320.69;;;20.13;59.42
41234;BME280;26968;42.686;23.352;2022-08-14T10:07:49;94632.09;;;22.25;59.19
41234;BME280;26968;42.686;23.352;2022-08-14T10:10:36;94645.66;;;22.75;58.56
41234;BME280;26968;42.686;23.352;2022-08-14T10:13:06;94642.56;;;23.29;56.87
41234;BME280;26968;42.686;23.352;2022-08-14T10:15:36;94654.66;;;23.38;56.03
41234;BME280;26968;42.686;23.352;2022-08-14T10:18:11;94642.75;;;23.73;55.30
41234;BME280;26968;42.686;23.352;2022-08-14T10:20:42;94647.25;;;23.62;54.07
41234;BME280;26968;42.686;23.352;2022-08-14T10:25:44;94639.31;;;23.16;55.76
41234;BME280;26968;42.686;23.352;2022-08-14T10:28:10;94638.03;;;23.36;54.75
41234;BME280;26968;42.686;23.352;2022-08-14T10:30:42;94638.09;;;24.07;53.30
41234;BME280;26968;42.686;23.352;2022-08-14T10:33:11;94616.13;;;24.15;52.15
41234;BME280;26968;42.686;23.352;2022-08-14T10:35:47;94541.25;;;23.56;52.50
41234;BME280;26968;42.686;23.352;2022-08-14T10:38:12;94629.22;;;24.10;51.34
41234;BME280;26968;42.686;23.352;2022-08-14T10:40:38;94362.59;;;21.85;53.47
41234;BME280;26968;42.686;23.352;2022-08-14T10:43:15;94575.50;;;23.45;52.91
41234;BME280;26968;42.686;23.352;2022-08-14T10:45:51;94516.31;;;23.40;53.12
41234;BME280;26968;42.686;23.352;2022-08-14T10:48:18;94535.56;;;23.35;52.44
41234;BME280;26968;42.686;23.352;2022-08-14T10:50:44;94570.97;;;23.90;52.46
41234;BME280;26968;42.686;23.352;2022-08-14T10:53:13;94578.28;;;24.26;51.52
41234;BME280;26968;42.686;23.352;2022-08-14T10:55:39;94567.16;;;23.94;51.65
41234;BME280;26968;42.686;23.352;2022-08-14T10:58:06;94509.59;;;23.60;51.19
41234;BME280;26968;42.686;23.352;2022-08-14T11:00:41;94464.53;;;23.41;51.05
41234;BME280;26968;42.686;23.352;2022-08-14T11:03:17;94550.34;;;24.18;50.93
41234;BME280;26968;42.686;23.352;2022-08-14T11:05:45;94596.84;;;23.50;52.17
41234;BME280;26968;42.686;23.352;2022-08-14T11:08:12;94515.13;;;22.74;52.60
41234;BME280;26968;42.686;23.352;2022-08-14T11:10:49;94581.22;;;23.06;53.52
41234;BME280;26968;42.686;23.352;2022-08-14T11:13:23;94580.34;;;22.99;53.89
41234;BME280;26968;42.686;23.352;2022-08-14T11:15:50;94587.13;;;23.16;53.45
41234;BME280;26968;42.686;23.352;2022-08-14T11:18:17;94531.59;;;22.92;52.77
41234;BME280;26968;42.686;23.352;2022-08-14T11:20:51;94487.53;;;22.91;52.53
41234;BME280;26968;42.686;23.352;2022-08-14T11:23:31;94501.00;;;23.18;52.10
41234;BME280;26968;42.686;23.352;2022-08-14T11:25:58;94546.75;;;23.63;51.68
41234;BME280;26968;42.686;23.352;2022-08-14T11:28:26;94516.34;;;23.80;51.60
41234;BME280;26968;42.686;23.352;2022-08-14T11:30:52;94526.81;;;24.26;49.77
41234;BME280;26968;42.686;23.352;2022-08-14T11:33:26;94558.00;;;24.53;49.69
41234;BME280;26968;42.686;23.352;2022-08-14T11:35:56;94498.84;;;24.73;48.96
41234;BME280;26968;42.686;23.352;2022-08-14T11:38:25;94506.94;;;24.66;48.00
41234;BME280;26968;42.686;23.352;2022-08-14T11:40:55;94559.38;;;24.88;48.07
41234;BME280;26968;42.686;23.352;2022-08-14T11:43:21;94502.69;;;24.14;49.16
41234;BME280;26968;42.686;23.352;2022-08-14T11:45:50;94550.13;;;24.38;48.30
41234;BME280;26968;42.686;23.352;2022-08-14T11:48:18;94464.38;;;24.08;47.52
41234;BME280;26968;42.686;23.352;2022-08-14T11:50:45;94581.56;;;25.01;47.80
41234;BME280;26968;42.686;23.352;2022-08-14T11:55:45;94513.31;;;23.89;48.78
41234;BME280;26968;42.686;23.352;2022-08-14T11:58:11;94480.56;;;24.05;48.59
41234;BME280;26968;42.686;23.352;2022-08-14T12:00:50;94509.50;;;24.38;48.68
41234;BME280;26968;42.686;23.352;2022-08-14T12:03:18;94498.16;;;24.21;48.16
41234;BME280;26968;42.686;23.352;2022-08-14T12:05:43;94537.13;;;24.61;47.67
41234;BME280;26968;42.686;23.352;2022-08-14T12:08:10;94540.22;;;24.56;47.67
41234;BME280;26968;42.686;23.352;2022-08-14T12:10:37;94572.50;;;24.82;47.60
41234;BME280;26968;42.686;23.352;2022-08-14T12:13:14;94575.97;;;24.76;47.44
41234;BME280;26968;42.686;23.352;2022-08-14T12:15:41;94501.78;;;24.40;47.76
41234;BME280;26968;42.686;23.352;2022-08-14T12:18:07;94363.25;;;23.42;47.14
41234;BME280;26968;42.686;23.352;2022-08-14T12:20:34;94520.84;;;24.06;47.49
41234;BME280;26968;42.686;23.352;2022-08-14T12:23:05;94554.09;;;24.47;47.91
41234;BME280;26968;42.686;23.352;2022-08-14T12:25:32;94558.69;;;24.43;48.45
41234;BME280;26968;42.686;23.352;2022-08-14T12:28:02;94547.88;;;24.47;49.01
41234;BME280;26968;42.686;23.352;2022-08-14T12:30:39;94550.13;;;24.38;49.87
41234;BME280;26968;42.686;23.352;2022-08-14T12:33:21;94385.22;;;23.34;49.66
41234;BME280;26968;42.686;23.352;2022-08-14T12:35:51;94544.41;;;24.50;48.85
41234;BME280;26968;42.686;23.352;2022-08-14T12:38:17;94484.13;;;24.12;48.95
41234;BME280;26968;42.686;23.352;2022-08-14T12:43:13;94526.25;;;24.06;50.47
41234;BME280;26968;42.686;23.352;2022-08-14T12:45:45;94480.78;;;23.41;51.63
41234;BME280;26968;42.686;23.352;2022-08-14T12:48:14;94516.25;;;23.36;53.55
41234;BME280;26968;42.686;23.352;2022-08-14T12:50:41;94436.41;;;22.49;54.63
41234;BME280;26968;42.686;23.352;2022-08-14T12:53:08;94544.88;;;23.37;54.38
41234;BME280;26968;42.686;23.352;2022-08-14T12:55:38;94539.66;;;23.52;54.45
41234;BME280;26968;42.686;23.352;2022-08-14T12:58:05;94478.78;;;22.71;54.95
41234;BME280;26968;42.686;23.352;2022-08-14T13:00:32;94428.41;;;22.26;57.00
41234;BME280;26968;42.686;23.352;2022-08-14T13:02:59;94430.03;;;22.05;59.30
41234;BME280;26968;42.686;23.352;2022-08-14T13:05:28;94214.31;;;20.87;61.20
41234;BME280;26968;42.686;23.352;2022-08-14T13:07:57;94526.16;;;22.88;63.20
41234;BME280;26968;42.686;23.352;2022-08-14T13:10:23;94475.63;;;22.13;62.80
41234;BME280;26968;42.686;23.352;2022-08-14T13:12:51;94527.06;;;22.47;63.58
41234;BME280;26968;42.686;23.352;2022-08-14T13:15:18;94470.88;;;21.80;63.94
41234;BME280;26968;42.686;23.352;2022-08-14T13:17:47;94408.75;;;21.54;65.79
41234;BME280;26968;42.686;23.352;2022-08-14T13:20:16;94462.88;;;21.87;65.37
41234;BME280;26968;42.686;23.352;2022-08-14T13:22:42;94416.84;;;21.54;67.83